Time;durP1;ratioP1;P1;durP2;ratioP2;P2;SDS_P1;SDS_P2;PMS_P1;PMS_P2;Temp;Humidity;BMP_temperature;BMP_pressure;BME280_temperature;BME280_humidity;BME280_pressure;Samples;Min_cycle;Max_cycle;Signal;HPM_P1;HPM_P2
2023/11/12 00:01:35;;;;;;;13.20;8.23;;;5.30;99.90;;;;;;4966160;28;87937;-85
2023/11/12 00:04:01;;;;;;;15.23;7.75;;;5.20;99.90;;;;;;4968195;28;87106;-80
2023/11/12 00:06:28;;;;;;;13.27;8.57;;;5.10;99.90;;;;;;4968962;28;86043;-83
2023/11/12 00:08:53;;;;;;;14.40;8.15;;;5.00;99.90;;;;;;4973820;28;86499;-83
2023/11/12 00:11:19;;;;;;;14.30;8.38;;;4.90;99.90;;;;;;4962568;28;87647;-80
2023/11/12 00:13:45;;;;;;;16.52;8.30;;;4.90;99.90;;;;;;4968730;28;87480;-83
2023/11/12 00:16:11;;;;;;;18.30;8.43;;;4.80;99.90;;;;;;4968817;28;86505;-82
2023/11/12 00:18:38;;;;;;;18.85;8.70;;;4.80;99.90;;;;;;4977166;28;86581;-82
2023/11/12 00:21:07;;;;;;;14.60;7.72;;;4.70;99.90;;;;;;4968398;28;87558;-83
2023/11/12 00:23:36;;;;;;;10.77;7.40;;;4.70;99.90;;;;;;4969004;28;87538;-83
2023/11/12 00:26:02;;;;;;;15.35;8.48;;;4.60;99.90;;;;;;4970495;28;86428;-83
2023/11/12 00:28:27;;;;;;;12.68;6.90;;;4.60;99.90;;;;;;4954318;28;86843;-85
2023/11/12 00:30:53;;;;;;;15.10;7.55;;;4.50;99.90;;;;;;4984998;28;89233;-83
2023/11/12 00:33:20;;;;;;;15.18;7.88;;;4.50;99.90;;;;;;4968388;28;87612;-82
2023/11/12 00:35:45;;;;;;;14.10;8.38;;;4.40;99.90;;;;;;4969310;28;86198;-81
2023/11/12 00:38:11;;;;;;;20.40;8.60;;;4.30;99.90;;;;;;4968403;28;86693;-83
2023/11/12 00:40:39;;;;;;;15.90;8.23;;;4.30;99.90;;;;;;4968515;28;89935;-82
2023/11/12 00:43:05;;;;;;;14.57;8.00;;;4.20;99.90;;;;;;4970383;28;88724;-86
2023/11/12 00:45:30;;;;;;;14.35;8.63;;;4.20;99.90;;;;;;4984672;28;86345;-84
2023/11/12 00:47:57;;;;;;;14.50;8.43;;;4.10;99.90;;;;;;4969556;28;86169;-83
2023/11/12 00:50:22;;;;;;;14.25;8.40;;;4.00;99.90;;;;;;4968094;28;86420;-78
2023/11/12 00:52:48;;;;;;;15.70;8.40;;;4.00;99.90;;;;;;4970117;28;86338;-81
2023/11/12 00:55:14;;;;;;;18.92;9.52;;;4.00;99.90;;;;;;4970564;28;86504;-81
2023/11/12 00:57:39;;;;;;;15.18;9.00;;;4.00;99.90;;;;;;4969650;28;87301;-80
2023/11/12 01:00:06;;;;;;;20.20;8.82;;;4.00;99.90;;;;;;4963306;28;89263;-82
2023/11/12 01:02:31;;;;;;;19.83;9.27;;;4.00;99.90;;;;;;4964777;28;88176;-82
2023/11/12 01:04:57;;;;;;;14.68;8.88;;;4.00;99.90;;;;;;4949696;28;86758;-83
2023/11/12 01:07:23;;;;;;;23.77;9.48;;;3.90;99.90;;;;;;4949450;28;86839;-84
2023/11/12 01:09:50;;;;;;;17.10;9.38;;;3.90;99.90;;;;;;4952288;28;86022;-81
2023/11/12 01:12:15;;;;;;;16.13;9.50;;;4.00;99.90;;;;;;4948867;28;88182;-80
2023/11/12 01:14:42;;;;;;;17.23;9.18;;;4.00;99.90;;;;;;4947514;28;86040;-82
2023/11/12 01:17:08;;;;;;;20.20;9.98;;;4.00;99.90;;;;;;4948406;28;86514;-86
2023/11/12 01:19:33;;;;;;;19.00;9.50;;;4.00;99.90;;;;;;4947606;28;89425;-81
2023/11/12 01:21:59;;;;;;;15.90;9.35;;;4.00;99.90;;;;;;4950053;28;89032;-83
2023/11/12 01:24:26;;;;;;;21.00;10.40;;;4.00;99.90;;;;;;4966008;28;86455;-85
2023/11/12 01:26:52;;;;;;;18.65;9.65;;;4.00;99.90;;;;;;4947249;28;86271;-85
2023/11/12 01:29:17;;;;;;;19.33;9.55;;;4.00;99.90;;;;;;4955337;28;89803;-85
2023/11/12 01:31:45;;;;;;;17.50;10.13;;;4.00;99.90;;;;;;4959615;28;86925;-88
2023/11/12 01:34:11;;;;;;;22.10;9.18;;;4.10;99.90;;;;;;4966872;28;85937;-85
2023/11/12 01:36:37;;;;;;;20.10;10.32;;;4.10;99.90;;;;;;4969061;28;86990;-82
2023/11/12 01:39:03;;;;;;;22.00;8.82;;;4.10;99.90;;;;;;4960806;28;88143;-81
2023/11/12 01:41:29;;;;;;;18.75;9.38;;;4.10;99.90;;;;;;4966831;28;86055;-86
2023/11/12 01:43:55;;;;;;;18.92;9.43;;;4.10;99.90;;;;;;4959350;28;86480;-81
2023/11/12 01:46:20;;;;;;;26.58;9.93;;;4.10;99.90;;;;;;4982674;28;86486;-88
2023/11/12 01:48:47;;;;;;;25.23;9.32;;;4.10;99.90;;;;;;4968507;28;90386;-84
2023/11/12 01:51:14;;;;;;;22.70;9.43;;;4.10;99.90;;;;;;4969117;28;88955;-89
2023/11/12 01:53:41;;;;;;;19.85;9.75;;;4.10;99.90;;;;;;4969811;28;85770;-84
2023/11/12 01:56:10;;;;;;;14.70;9.02;;;4.10;99.90;;;;;;4969476;28;86349;-83
2023/11/12 01:58:37;;;;;;;15.63;8.88;;;4.10;99.90;;;;;;4968666;28;88241;-84
2023/11/12 02:01:04;;;;;;;18.33;8.60;;;4.10;99.90;;;;;;4964078;28;93782;-85
2023/11/12 02:03:31;;;;;;;20.48;9.15;;;4.10;99.90;;;;;;4955682;28;86650;-86
2023/11/12 02:05:57;;;;;;;20.73;8.57;;;4.20;99.90;;;;;;4951811;28;86625;-81
2023/11/12 02:08:23;;;;;;;14.30;8.52;;;4.20;99.90;;;;;;4941521;28;87535;-81
2023/11/12 02:10:53;;;;;;;15.80;8.38;;;4.20;99.90;;;;;;4938853;28;89260;-82
2023/11/12 02:13:19;;;;;;;15.13;8.15;;;4.20;99.90;;;;;;4953643;28;86184;-84
2023/11/12 02:15:46;;;;;;;16.08;7.90;;;4.20;99.90;;;;;;4939747;28;86498;-86
2023/11/12 02:18:12;;;;;;;25.65;9.32;;;4.20;99.90;;;;;;4939830;28;89543;-81
2023/11/12 02:20:45;;;;;;;11.73;7.05;;;4.20;99.90;;;;;;4939129;28;88458;-83
2023/11/12 02:23:11;;;;;;;15.20;7.82;;;4.20;99.90;;;;;;4940294;28;86671;-83
2023/11/12 02:25:37;;;;;;;15.30;7.00;;;4.30;99.90;;;;;;4939326;28;86436;-82
2023/11/12 02:28:03;;;;;;;18.13;7.57;;;4.20;99.90;;;;;;4940397;28;89793;-85
2023/11/12 02:30:30;;;;;;;14.38;7.68;;;4.30;99.90;;;;;;4942102;28;89321;-84
2023/11/12 02:32:56;;;;;;;12.10;7.13;;;4.20;99.90;;;;;;4940069;28;85916;-86
2023/11/12 02:35:21;;;;;;;11.70;7.10;;;4.30;99.90;;;;;;4939379;28;86907;-90
2023/11/12 02:37:47;;;;;;;12.32;6.13;;;4.30;99.90;;;;;;4939898;28;87393;-84
2023/11/12 02:40:14;;;;;;;14.80;6.63;;;4.30;99.90;;;;;;4944415;28;86315;-86
2023/11/12 02:42:40;;;;;;;12.52;6.35;;;4.30;99.90;;;;;;4940732;28;86872;-84
2023/11/12 02:45:07;;;;;;;11.50;6.32;;;4.30;99.90;;;;;;4941135;28;87402;-86
2023/11/12 02:47:33;;;;;;;11.32;6.35;;;4.30;99.90;;;;;;4940274;28;88660;-84
2023/11/12 02:50:03;;;;;;;10.93;5.80;;;4.30;99.90;;;;;;4941296;28;88380;-84
2023/11/12 02:52:29;;;;;;;10.27;6.47;;;4.30;99.90;;;;;;4957853;28;86324;-86
2023/11/12 02:54:55;;;;;;;9.95;5.80;;;4.20;99.90;;;;;;4939064;28;86320;-87
2023/11/12 02:57:23;;;;;;;9.18;5.93;;;4.20;99.90;;;;;;4943056;28;89313;-88
2023/11/12 02:59:49;;;;;;;10.68;5.88;;;4.20;99.90;;;;;;4938036;28;87289;-88
2023/11/12 03:02:15;;;;;;;9.73;5.45;;;4.10;99.90;;;;;;4941078;28;86009;-82
2023/11/12 03:04:41;;;;;;;13.32;5.88;;;4.10;99.90;;;;;;4942220;28;86490;-83
2023/11/12 03:07:08;;;;;;;7.93;5.15;;;4.10;99.90;;;;;;4941525;28;87725;-82
2023/11/12 03:09:34;;;;;;;8.38;5.15;;;4.00;99.90;;;;;;4941681;28;89220;-87
2023/11/12 03:12:02;;;;;;;10.40;5.03;;;4.00;99.90;;;;;;4943555;28;86281;-83
2023/11/12 03:14:29;;;;;;;8.63;5.25;;;4.00;99.90;;;;;;4940807;28;86440;-82
2023/11/12 03:16:54;;;;;;;10.93;5.40;;;3.90;99.90;;;;;;4941705;28;89116;-84
2023/11/12 03:19:21;;;;;;;7.63;5.50;;;3.80;99.90;;;;;;4944062;28;86552;-86
2023/11/12 03:21:55;;;;;;;10.73;5.70;;;3.80;99.90;;;;;;4940403;28;86847;-85
2023/11/12 03:24:21;;;;;;;9.30;5.75;;;3.80;99.90;;;;;;4940115;28;86803;-83
2023/11/12 03:26:50;;;;;;;12.45;5.68;;;3.70;99.90;;;;;;4942028;28;88605;-84
2023/11/12 03:29:17;;;;;;;7.28;4.95;;;3.70;99.90;;;;;;4940540;28;89093;-82
2023/11/12 03:31:44;;;;;;;10.98;5.15;;;3.70;99.90;;;;;;4939661;28;86987;-87
2023/11/12 03:34:10;;;;;;;8.75;4.72;;;3.60;99.90;;;;;;4924390;28;86212;-85
2023/11/12 03:36:36;;;;;;;10.18;5.03;;;3.60;99.90;;;;;;4939364;28;87847;-82
2023/11/12 03:39:01;;;;;;;11.02;4.68;;;3.60;99.90;;;;;;4939682;28;87360;-85
2023/11/12 03:41:27;;;;;;;10.07;4.90;;;3.50;99.90;;;;;;4943255;28;86593;-84
2023/11/12 03:43:53;;;;;;;8.20;4.80;;;3.50;99.90;;;;;;4942894;28;86114;-82
2023/11/12 03:46:19;;;;;;;7.82;4.50;;;3.50;99.90;;;;;;4941545;28;88645;-84
2023/11/12 03:48:45;;;;;;;9.35;5.30;;;3.40;99.90;;;;;;4938654;28;88872;-83
2023/11/12 03:51:10;;;;;;;7.18;4.50;;;3.40;99.90;;;;;;4941551;28;86759;-82
2023/11/12 03:53:36;;;;;;;8.90;5.32;;;3.30;99.90;;;;;;4940621;28;87158;-79
2023/11/12 03:56:02;;;;;;;10.23;4.95;;;3.30;99.90;;;;;;4942322;28;87928;-85
2023/11/12 03:58:30;;;;;;;8.00;4.95;;;3.20;99.90;;;;;;4948473;28;88423;-87
2023/11/12 04:00:56;;;;;;;8.25;5.10;;;3.20;99.90;;;;;;4946725;28;86409;-86
2023/11/12 04:03:22;;;;;;;8.07;4.53;;;3.10;99.90;;;;;;4948531;28;86204;-84
2023/11/12 04:05:48;;;;;;;10.57;5.32;;;3.10;99.90;;;;;;4947731;28;88627;-84
2023/11/12 04:08:14;;;;;;;8.50;5.00;;;3.10;99.90;;;;;;4947822;28;87730;-86
2023/11/12 04:10:40;;;;;;;8.15;5.40;;;3.00;99.90;;;;;;4948299;28;85827;-82
2023/11/12 04:13:06;;;;;;;8.18;5.25;;;3.00;99.90;;;;;;4948052;28;86095;-84
2023/11/12 04:15:32;;;;;;;7.03;4.72;;;2.90;99.90;;;;;;4948102;28;86648;-81
2023/11/12 04:17:57;;;;;;;9.07;4.68;;;2.90;99.90;;;;;;4946577;28;87270;-84
2023/11/12 04:20:29;;;;;;;12.88;5.45;;;2.90;99.90;;;;;;4945776;28;86089;-81
2023/11/12 04:22:55;;;;;;;11.43;5.68;;;2.80;99.90;;;;;;4946881;28;86545;-86
2023/11/12 04:25:21;;;;;;;8.05;4.75;;;2.80;99.90;;;;;;4947406;28;89463;-81
2023/11/12 04:27:47;;;;;;;8.68;4.53;;;2.80;99.90;;;;;;4945944;28;86936;-83
2023/11/12 04:30:13;;;;;;;7.18;4.85;;;2.80;99.90;;;;;;4946775;28;86522;-81
2023/11/12 04:32:39;;;;;;;8.85;4.68;;;2.70;99.90;;;;;;4946607;28;86735;-85
2023/11/12 04:35:08;;;;;;;7.32;4.32;;;2.70;99.90;;;;;;4946720;28;87209;-85
2023/11/12 04:37:34;;;;;;;6.95;3.80;;;2.70;99.90;;;;;;4946835;28;88468;-81
2023/11/12 04:40:00;;;;;;;7.07;4.00;;;2.60;99.90;;;;;;4963149;28;86580;-82
2023/11/12 04:42:26;;;;;;;6.72;4.18;;;2.60;99.90;;;;;;4946060;28;86727;-85
2023/11/12 04:44:52;;;;;;;6.22;4.13;;;2.60;99.90;;;;;;4945007;28;88728;-83
2023/11/12 04:47:18;;;;;;;5.57;3.72;;;2.50;99.90;;;;;;4945365;28;87792;-81
2023/11/12 04:49:43;;;;;;;8.30;5.68;;;2.50;99.90;;;;;;4945725;28;86622;-80
2023/11/12 04:52:10;;;;;;;8.13;5.00;;;2.50;99.90;;;;;;4948625;28;85983;-81
2023/11/12 04:54:35;;;;;;;9.05;4.30;;;2.50;99.90;;;;;;4948333;28;88449;-82
2023/11/12 04:57:02;;;;;;;9.00;4.72;;;2.40;99.90;;;;;;4957427;28;89010;-81
2023/11/12 04:59:27;;;;;;;8.18;4.65;;;2.40;99.90;;;;;;4948043;28;86327;-83
2023/11/12 05:01:53;;;;;;;11.38;5.38;;;2.40;99.90;;;;;;4949000;28;86320;-82
2023/11/12 05:04:19;;;;;;;8.27;4.50;;;2.30;99.90;;;;;;4946625;28;89545;-80
2023/11/12 05:06:44;;;;;;;10.00;4.55;;;2.30;99.90;;;;;;4947206;28;89141;-81
2023/11/12 05:09:10;;;;;;;7.88;4.57;;;2.30;99.90;;;;;;4947542;28;86091;-86
2023/11/12 05:11:38;;;;;;;8.82;4.65;;;2.20;99.90;;;;;;4947490;28;86542;-81
2023/11/12 05:14:04;;;;;;;13.55;4.80;;;2.20;99.90;;;;;;4951071;28;86969;-86
2023/11/12 05:16:29;;;;;;;7.63;4.28;;;2.20;99.90;;;;;;4949153;28;87279;-81
2023/11/12 05:18:55;;;;;;;7.00;4.30;;;2.20;99.90;;;;;;4949257;28;87168;-82
2023/11/12 05:21:21;;;;;;;7.53;4.30;;;2.20;99.90;;;;;;4964208;28;86694;-81
2023/11/12 05:23:47;;;;;;;8.15;3.75;;;2.20;99.90;;;;;;4948482;28;87817;-84
2023/11/12 05:26:14;;;;;;;8.23;4.25;;;2.20;99.90;;;;;;4947549;28;89662;-80
2023/11/12 05:28:40;;;;;;;9.73;4.20;;;2.20;99.90;;;;;;4947588;28;86380;-80
2023/11/12 05:31:06;;;;;;;6.55;4.03;;;2.20;99.90;;;;;;4947886;28;86309;-83
2023/11/12 05:33:33;;;;;;;9.52;4.72;;;2.10;99.90;;;;;;4954682;28;86885;-86
2023/11/12 05:36:00;;;;;;;9.45;4.22;;;2.10;99.90;;;;;;4930313;28;87702;-84
2023/11/12 05:40:51;;;;;;;7.60;4.15;;;2.10;99.90;;;;;;4947429;28;86259;-80
2023/11/12 05:43:18;;;;;;;8.10;4.50;;;2.10;99.90;;;;;;4948096;28;89514;-81
2023/11/12 05:45:43;;;;;;;6.15;4.15;;;2.10;99.90;;;;;;4945948;28;86859;-81
2023/11/12 05:48:10;;;;;;;10.77;4.10;;;2.10;99.90;;;;;;4947588;28;86169;-82
2023/11/12 05:50:36;;;;;;;12.75;4.72;;;2.20;99.90;;;;;;4948228;28;88505;-80
2023/11/12 05:53:02;;;;;;;11.07;4.90;;;2.10;99.90;;;;;;4946575;28;88410;-82
2023/11/12 05:55:28;;;;;;;11.73;4.88;;;2.10;99.90;;;;;;4948349;28;88824;-83
2023/11/12 05:57:54;;;;;;;8.85;4.88;;;2.10;99.90;;;;;;4945460;28;86474;-81
2023/11/12 06:00:21;;;;;;;14.40;5.63;;;2.10;99.90;;;;;;4949348;28;86464;-83
2023/11/12 06:02:46;;;;;;;12.00;5.05;;;2.10;99.90;;;;;;4952201;28;86770;-91
2023/11/12 06:05:12;;;;;;;11.95;5.60;;;2.10;99.90;;;;;;4955759;28;87802;-91
2023/11/12 06:07:37;;;;;;;9.88;5.15;;;2.10;99.90;;;;;;4954674;28;86390;-88
2023/11/12 06:10:04;;;;;;;12.77;5.10;;;2.10;99.90;;;;;;4954649;28;86353;-89
2023/11/12 06:12:30;;;;;;;14.13;5.50;;;2.10;99.90;;;;;;4953278;28;89195;-88
2023/11/12 06:14:56;;;;;;;14.52;6.25;;;2.00;99.90;;;;;;4951344;28;88771;-85
2023/11/12 06:17:21;;;;;;;17.38;6.43;;;2.00;99.90;;;;;;4969015;28;86367;-90
2023/11/12 06:19:47;;;;;;;12.93;5.95;;;1.90;99.90;;;;;;4943286;28;85967;-91
2023/11/12 06:22:13;;;;;;;11.02;6.32;;;1.90;99.90;;;;;;4953334;28;87712;-91
2023/11/12 06:24:40;;;;;;;13.77;5.32;;;1.90;99.90;;;;;;4954029;28;87393;-90
2023/11/12 06:27:05;;;;;;;13.60;5.95;;;1.90;99.90;;;;;;4951214;28;86400;-92
2023/11/12 06:29:31;;;;;;;10.27;5.15;;;1.80;99.90;;;;;;4945322;28;86232;-91
2023/11/12 06:31:57;;;;;;;10.52;5.57;;;1.80;99.90;;;;;;4954784;28;86337;-92
2023/11/12 06:34:23;;;;;;;9.82;5.72;;;1.80;99.90;;;;;;4956040;28;88907;-92
2023/11/12 06:36:49;;;;;;;10.85;5.07;;;1.80;99.90;;;;;;4955635;28;85905;-91
2023/11/12 06:39:15;;;;;;;9.75;4.60;;;1.80;99.90;;;;;;4954829;28;86727;-94
2023/11/12 06:41:52;;;;;;;8.85;5.28;;;1.70;99.90;;;;;;4953573;28;88018;-92
2023/11/12 06:44:18;;;;;;;8.18;5.07;;;1.70;99.90;;;;;;4956121;28;88654;-92
2023/11/12 06:46:47;;;;;;;10.77;5.07;;;1.70;99.90;;;;;;4952936;28;86007;-93
2023/11/12 06:49:13;;;;;;;9.13;5.18;;;1.70;99.90;;;;;;4941600;28;86675;-94
2023/11/12 06:51:39;;;;;;;11.32;5.47;;;1.60;99.90;;;;;;4956329;28;88155;-92
2023/11/12 06:54:05;;;;;;;9.88;5.28;;;1.60;99.90;;;;;;4954767;28;89331;-94
2023/11/12 06:56:35;;;;;;;7.82;4.80;;;1.60;99.90;;;;;;4955724;28;86069;-91
2023/11/12 06:59:02;;;;;;;8.70;4.93;;;1.60;99.90;;;;;;4939566;28;86158;-93
2023/11/12 07:01:28;;;;;;;12.77;5.22;;;1.60;99.90;;;;;;4958221;28;88036;-91
2023/11/12 07:03:54;;;;;;;9.75;5.13;;;1.50;99.90;;;;;;4955489;28;88834;-93
2023/11/12 07:06:19;;;;;;;11.85;5.40;;;1.50;99.90;;;;;;4951461;28;86079;-91
2023/11/12 07:08:45;;;;;;;7.75;5.18;;;1.50;99.90;;;;;;4955272;28;85781;-92
2023/11/12 07:11:11;;;;;;;9.98;4.85;;;1.50;99.90;;;;;;4955622;28;86349;-90
2023/11/12 07:13:37;;;;;;;8.95;4.85;;;1.50;99.90;;;;;;4953070;28;87560;-92
2023/11/12 07:16:04;;;;;;;9.88;5.07;;;1.50;99.90;;;;;;4954342;28;86366;-93
2023/11/12 07:18:30;;;;;;;9.18;5.38;;;1.50;99.90;;;;;;4970492;28;86203;-91
2023/11/12 07:20:55;;;;;;;10.80;5.60;;;1.50;99.90;;;;;;4951447;28;89488;-91
2023/11/12 07:23:26;;;;;;;8.32;5.20;;;1.50;99.90;;;;;;4951076;28;87337;-91
2023/11/12 07:25:51;;;;;;;8.48;5.05;;;1.60;99.90;;;;;;4950508;28;86532;-92
2023/11/12 07:28:17;;;;;;;9.57;5.07;;;1.60;99.90;;;;;;4951328;28;86496;-91
2023/11/12 07:30:43;;;;;;;11.30;5.80;;;1.70;99.90;;;;;;4952561;28;86939;-91
2023/11/12 07:33:09;;;;;;;10.77;5.90;;;1.70;99.90;;;;;;4951219;28;87832;-92
2023/11/12 07:35:35;;;;;;;10.55;5.45;;;1.70;99.90;;;;;;4953169;28;86859;-91
2023/11/12 07:38:01;;;;;;;9.90;5.53;;;1.70;99.90;;;;;;4952710;28;86517;-91
2023/11/12 07:40:26;;;;;;;12.40;6.03;;;1.70;99.90;;;;;;4954087;28;89489;-91
2023/11/12 07:42:53;;;;;;;8.13;5.43;;;1.80;99.90;;;;;;4951166;28;87361;-90
2023/11/12 07:45:19;;;;;;;9.52;5.35;;;1.80;99.90;;;;;;4944917;28;86364;-91
2023/11/12 07:47:45;;;;;;;10.50;5.85;;;1.80;99.90;;;;;;4954373;28;86920;-92
2023/11/12 07:50:11;;;;;;;10.55;5.82;;;1.90;99.90;;;;;;4958716;28;88398;-89
2023/11/12 07:52:37;;;;;;;12.82;5.35;;;1.90;99.90;;;;;;4954233;28;89284;-92
2023/11/12 07:55:05;;;;;;;10.55;5.70;;;2.00;99.90;;;;;;4954927;28;86206;-94
2023/11/12 07:57:32;;;;;;;15.35;5.80;;;2.00;99.90;;;;;;4947267;28;86388;-93
2023/11/12 08:00:06;;;;;;;16.65;6.82;;;2.10;99.90;;;;;;4956787;28;88398;-89
2023/11/12 08:02:32;;;;;;;12.32;5.93;;;2.10;99.90;;;;;;4956875;28;87972;-91
2023/11/12 08:05:05;;;;;;;15.20;6.40;;;2.20;99.90;;;;;;4959208;28;86166;-91
2023/11/12 08:07:30;;;;;;;12.02;6.43;;;2.20;99.90;;;;;;4950046;28;85801;-91
2023/11/12 08:09:56;;;;;;;11.40;6.88;;;2.30;99.90;;;;;;4955816;28;88472;-93
2023/11/12 08:12:34;;;;;;;17.55;7.15;;;2.30;99.90;;;;;;4956203;28;87768;-93
2023/11/12 08:15:18;;;;;;;10.82;6.60;;;2.40;99.90;;;;;;4953203;28;86597;-93
2023/11/12 08:17:45;;;;;;;11.10;6.67;;;2.40;99.90;;;;;;4945794;28;86109;-94
2023/11/12 08:20:12;;;;;;;12.45;6.60;;;2.50;99.90;;;;;;4948095;28;88215;-93
2023/11/12 08:22:38;;;;;;;13.88;7.53;;;2.60;99.90;;;;;;4942033;28;87994;-93
2023/11/12 08:25:09;;;;;;;14.45;8.32;;;2.60;99.90;;;;;;4953614;28;86591;-94
2023/11/12 08:27:35;;;;;;;15.25;7.88;;;2.70;99.90;;;;;;4946300;28;86118;-93
2023/11/12 08:30:01;;;;;;;15.43;8.00;;;2.80;99.90;;;;;;4949090;28;88950;-93
2023/11/12 08:32:26;;;;;;;12.25;7.10;;;2.90;99.90;;;;;;4960483;28;87591;-90
2023/11/12 08:34:53;;;;;;;13.25;7.50;;;2.90;99.90;;;;;;4947640;28;85635;-93
2023/11/12 08:37:26;;;;;;;23.63;10.63;;;3.00;99.90;;;;;;4982578;28;85589;-93
2023/11/12 08:39:56;;;;;;;14.30;7.80;;;3.10;99.90;;;;;;4991405;28;88514;-93
2023/11/12 08:42:23;;;;;;;12.88;6.90;;;3.20;99.90;;;;;;5003586;28;88623;-93
2023/11/12 08:45:05;;;;;;;13.98;8.02;;;3.30;99.90;;;;;;4990494;28;85836;-94
2023/11/12 08:47:31;;;;;;;13.35;7.20;;;3.40;99.90;;;;;;4985139;28;85511;-94
2023/11/12 08:50:04;;;;;;;11.13;6.82;;;3.50;99.90;;;;;;4971239;28;86153;-93
2023/11/12 08:52:30;;;;;;;13.38;7.97;;;3.50;99.90;;;;;;4985877;28;87497;-93
2023/11/12 08:54:57;;;;;;;13.18;8.40;;;3.60;99.90;;;;;;4986388;28;85977;-93
2023/11/12 08:57:22;;;;;;;22.98;9.88;;;3.70;99.90;;;;;;4983500;28;86455;-92
2023/11/12 08:59:48;;;;;;;16.13;9.18;;;3.80;99.90;;;;;;4969354;28;88221;-93
2023/11/12 09:02:14;;;;;;;20.35;8.82;;;3.90;99.90;;;;;;4966586;28;86549;-92
2023/11/12 09:04:40;;;;;;;19.25;9.05;;;4.00;99.90;;;;;;4967647;28;86214;-92
2023/11/12 09:07:07;;;;;;;23.17;9.82;;;4.10;99.90;;;;;;4967894;28;86064;-91
2023/11/12 09:09:32;;;;;;;21.38;9.88;;;4.20;99.90;;;;;;4963816;28;88283;-89
2023/11/12 09:11:58;;;;;;;14.90;8.60;;;4.30;99.90;;;;;;4964367;28;86458;-92
2023/11/12 09:14:24;;;;;;;20.13;9.57;;;4.40;99.90;;;;;;4965653;28;86411;-90
2023/11/12 09:16:50;;;;;;;15.38;8.18;;;4.50;99.90;;;;;;4963569;28;86336;-91
2023/11/12 09:19:15;;;;;;;20.55;9.02;;;4.60;99.90;;;;;;4964220;28;87257;-90
2023/11/12 09:21:42;;;;;;;19.05;8.48;;;4.70;99.90;;;;;;4963484;28;91791;-91
2023/11/12 09:24:08;;;;;;;16.27;8.05;;;4.70;99.90;;;;;;4950117;28;86593;-89
2023/11/12 09:26:34;;;;;;;14.50;8.00;;;4.80;99.90;;;;;;4944873;28;86682;-88
2023/11/12 09:29:00;;;;;;;17.48;7.88;;;4.80;99.90;;;;;;4957779;28;88168;-89
2023/11/12 09:31:26;;;;;;;14.70;7.53;;;4.90;99.90;;;;;;4943813;28;87533;-92
2023/11/12 09:33:54;;;;;;;14.40;8.15;;;5.00;99.90;;;;;;4942930;28;86521;-90
2023/11/12 09:36:23;;;;;;;13.52;7.28;;;5.10;99.90;;;;;;4945674;28;86517;-92
2023/11/12 09:38:48;;;;;;;14.00;7.55;;;5.20;99.90;;;;;;4945805;28;87969;-90
2023/11/12 09:41:15;;;;;;;13.23;7.00;;;5.20;99.90;;;;;;4944562;28;87212;-90
2023/11/12 09:43:41;;;;;;;15.60;7.47;;;5.40;99.90;;;;;;4944510;28;86294;-90
2023/11/12 09:46:07;;;;;;;11.27;7.22;;;5.40;99.90;;;;;;4945790;28;86201;-90
2023/11/12 09:48:39;;;;;;;13.13;7.63;;;5.60;99.90;;;;;;4943998;28;89097;-89
2023/11/12 09:51:06;;;;;;;11.93;7.32;;;5.60;99.90;;;;;;4945100;28;87686;-91
2023/11/12 09:53:36;;;;;;;12.80;7.68;;;5.70;99.90;;;;;;4945334;28;87940;-90
2023/11/12 09:56:08;;;;;;;19.05;8.23;;;5.80;99.90;;;;;;4946190;28;87022;-92
2023/11/12 09:58:38;;;;;;;15.93;8.60;;;5.90;99.90;;;;;;4946427;28;88266;-91
2023/11/12 10:01:09;;;;;;;14.20;7.57;;;6.00;99.90;;;;;;4974376;28;91925;-90
2023/11/12 10:03:35;;;;;;;15.55;8.38;;;6.10;99.90;;;;;;4967195;28;86540;-92
2023/11/12 10:06:04;;;;;;;16.95;8.10;;;6.20;99.90;;;;;;4965885;28;86543;-91
2023/11/12 10:08:32;;;;;;;16.40;8.00;;;6.30;99.90;;;;;;4967079;28;89127;-90
2023/11/12 10:11:20;;;;;;;13.65;7.88;;;6.40;99.90;;;;;;4966863;28;87616;-91
2023/11/12 10:13:46;;;;;;;15.75;7.78;;;6.50;99.90;;;;;;4967772;28;86576;-90
2023/11/12 10:16:25;;;;;;;19.20;8.27;;;6.60;99.90;;;;;;4974918;28;86488;-90
2023/11/12 10:19:05;;;;;;;14.88;7.88;;;6.70;99.90;;;;;;4983077;28;88522;-92
2023/11/12 10:21:31;;;;;;;12.23;7.68;;;6.90;99.90;;;;;;4985714;28;89026;-93
2023/11/12 10:24:09;;;;;;;17.92;9.07;;;6.90;99.90;;;;;;4977284;28;86982;-91
2023/11/12 10:26:35;;;;;;;14.20;9.05;;;7.10;99.90;;;;;;4987579;28;86505;-91
2023/11/12 10:29:01;;;;;;;18.45;9.85;;;7.20;99.90;;;;;;4979147;28;88131;-94
2023/11/12 10:31:37;;;;;;;22.02;10.18;;;7.20;99.90;;;;;;4976895;28;87990;-91
2023/11/12 10:34:03;;;;;;;19.75;9.45;;;7.30;99.90;;;;;;4975219;28;88103;-90
2023/11/12 10:36:29;;;;;;;17.05;9.55;;;7.50;99.90;;;;;;4970983;28;85904;-92
2023/11/12 10:39:03;;;;;;;14.95;10.27;;;7.60;99.90;;;;;;4948223;28;88182;-93
2023/11/12 10:41:40;;;;;;;18.17;10.20;;;7.70;99.90;;;;;;4958748;28;88566;-93
2023/11/12 10:44:11;;;;;;;15.35;10.25;;;7.80;99.90;;;;;;4965261;28;86234;-93
2023/11/12 10:46:38;;;;;;;18.85;10.10;;;7.90;99.90;;;;;;4971461;28;85820;-91
2023/11/12 10:49:08;;;;;;;17.48;9.02;;;8.00;99.90;;;;;;4954565;28;88283;-93
2023/11/12 10:51:38;;;;;;;19.90;9.57;;;8.10;99.90;;;;;;4952847;28;86769;-92
2023/11/12 10:54:06;;;;;;;14.10;8.38;;;8.20;99.90;;;;;;4949934;28;85963;-92
2023/11/12 10:56:32;;;;;;;19.52;9.27;;;8.40;99.90;;;;;;4949494;28;86018;-91
2023/11/12 10:58:58;;;;;;;16.77;8.88;;;8.60;99.90;;;;;;4953229;28;88847;-89
2023/11/12 11:01:26;;;;;;;14.93;8.23;;;8.80;99.90;;;;;;4957134;28;88211;-91
2023/11/12 11:03:51;;;;;;;15.65;8.15;;;9.00;99.90;;;;;;4958627;28;85942;-91
2023/11/12 11:06:17;;;;;;;14.80;8.15;;;9.30;99.90;;;;;;4957579;28;86218;-91
2023/11/12 11:08:43;;;;;;;14.48;7.03;;;9.50;99.90;;;;;;4973716;28;86686;-91
2023/11/12 11:11:09;;;;;;;14.38;6.72;;;9.70;99.90;;;;;;4970425;28;86854;-91
2023/11/12 11:13:35;;;;;;;13.55;5.10;;;9.90;99.90;;;;;;4957044;28;86564;-92
2023/11/12 11:16:09;;;;;;;15.20;4.80;;;10.10;99.90;;;;;;4975856;28;87911;-91
2023/11/12 11:18:34;;;;;;;12.77;3.55;;;10.30;99.90;;;;;;4972744;28;88733;-90
2023/11/12 11:21:05;;;;;;;11.18;3.20;;;10.50;99.90;;;;;;4962930;28;88477;-92
2023/11/12 11:23:41;;;;;;;10.75;3.72;;;10.60;99.90;;;;;;4962573;28;92653;-89
2023/11/12 11:26:29;;;;;;;9.85;3.28;;;10.70;99.90;;;;;;4962517;28;86400;-91
2023/11/12 11:29:10;;;;;;;14.23;2.80;;;10.90;99.90;;;;;;4954355;28;88153;-89
2023/11/12 11:31:48;;;;;;;7.45;2.42;;;11.00;99.90;;;;;;4986884;28;89033;-88
2023/11/12 11:34:15;;;;;;;11.10;2.75;;;11.10;99.90;;;;;;4988201;28;90709;-93
2023/11/12 11:36:59;;;;;;;11.15;3.08;;;11.10;99.90;;;;;;4985502;28;86356;-92
2023/11/12 11:39:26;;;;;;;9.02;2.85;;;11.00;99.90;;;;;;4975353;28;88152;-92
2023/11/12 11:41:52;;;;;;;11.20;2.30;;;11.10;99.90;;;;;;4971423;28;87896;-93
2023/11/12 11:44:42;;;;;;;13.40;2.75;;;11.00;99.90;;;;;;4972891;28;86316;-93
2023/11/12 11:47:22;;;;;;;13.68;2.75;;;11.10;99.90;;;;;;4987043;28;86188;-93
2023/11/12 11:49:49;;;;;;;5.07;2.47;;;11.20;99.90;;;;;;4979939;28;88164;-92
2023/11/12 11:52:26;;;;;;;11.55;2.58;;;11.20;99.90;;;;;;4974194;28;87857;-91
2023/11/12 11:54:56;;;;;;;9.75;3.20;;;11.40;99.90;;;;;;4977987;28;85988;-94
2023/11/12 11:57:27;;;;;;;10.30;2.38;;;11.50;99.90;;;;;;4990384;28;86178;-93
2023/11/12 12:00:05;;;;;;;10.23;3.05;;;11.50;99.90;;;;;;4985143;28;89209;-91
2023/11/12 12:02:42;;;;;;;15.00;2.90;;;11.60;99.90;;;;;;4981090;28;88684;-89
2023/11/12 12:05:08;;;;;;;8.52;2.22;;;11.60;99.90;;;;;;4983520;28;86412;-89
2023/11/12 12:07:36;;;;;;;9.50;2.28;;;11.70;99.90;;;;;;4975853;28;86574;-91
2023/11/12 12:10:08;;;;;;;7.80;1.95;;;11.70;99.90;;;;;;4983788;28;92342;-91
2023/11/12 12:12:36;;;;;;;5.57;1.70;;;11.70;99.90;;;;;;4966929;28;87851;-91
2023/11/12 12:15:08;;;;;;;11.90;2.00;;;11.60;99.90;;;;;;4954544;28;86607;-91
2023/11/12 12:17:38;;;;;;;9.70;1.75;;;11.60;99.90;;;;;;4944766;28;87087;-92
2023/11/12 12:20:05;;;;;;;8.15;2.13;;;11.60;99.90;;;;;;4969949;28;89715;-92
2023/11/12 12:22:31;;;;;;;9.40;2.08;;;11.70;99.90;;;;;;4946504;28;87343;-91
2023/11/12 12:24:56;;;;;;;8.57;1.75;;;11.60;99.90;;;;;;4947686;28;86324;-93
2023/11/12 12:27:23;;;;;;;7.95;2.08;;;11.60;99.90;;;;;;4950341;28;86498;-92
2023/11/12 12:29:50;;;;;;;6.43;1.52;;;11.60;99.90;;;;;;4947608;28;89417;-92
2023/11/12 12:32:20;;;;;;;7.50;1.90;;;11.60;99.90;;;;;;4949590;28;87979;-93
2023/11/12 12:35:06;;;;;;;10.60;2.00;;;11.60;99.90;;;;;;4946876;28;86362;-92
2023/11/12 12:37:32;;;;;;;7.05;1.50;;;11.50;99.90;;;;;;4947388;28;86357;-92
2023/11/12 12:40:16;;;;;;;7.50;1.65;;;11.50;99.90;;;;;;4948870;28;88112;-91
2023/11/12 12:42:53;;;;;;;11.98;2.30;;;11.50;99.90;;;;;;4945391;28;88895;-93
2023/11/12 12:45:19;;;;;;;15.57;7.70;;;11.50;99.90;;;;;;4927935;28;86758;-90
2023/11/12 12:47:44;;;;;;;7.38;2.00;;;11.50;99.90;;;;;;4946160;28;86356;-92
2023/11/12 12:50:14;;;;;;;6.63;1.52;;;11.50;99.90;;;;;;4946578;28;88273;-91
2023/11/12 12:52:46;;;;;;;8.75;2.75;;;11.50;99.90;;;;;;4949861;28;87232;-94